Northeast weather (let's pray together)...

Baronman

Well-Known Member
Northeast weather (let\'s pray together)...

Geez....Another day with this crappy trough sitting over us.

If I have to read another TAF with clouds at SCT008, BKN 012 I'm gonna puke. Mother Nature please help us, I beg of you.
 

Boltonpilot

New Member
Re: Northeast weather (let\'s pray together)...

Yeah, I was supposed to fly solo the other day, but several thunderstorms decided to come in. I re-scheduled for today, and they are forecasting the same crappy weather for today.
 

Jason

Well-Known Member
Re: Northeast weather (let\'s pray together)...

No freakin' doubt -- I spent the week in TEB - the weather was horrid - even for the northeast.

Jason
 

EatSleepFly

Well-Known Member
Re: Northeast weather (let\'s pray together)...

Man, I hear you. The weather in Ohio has absolutely blown the last two weeks too. Visibilities during the day are considered to be awesome lately if they get above 5 miles. Been hot, hazy, and stormy...courtesy of two low pressure systems that have parked themselves nearby. Was supposed to do an IFR flight this morning, but the wx at our destination (podunk, middle of nowhere, so no ILS) was BKN003, with a vis. of 1 3/4. Oh well...
 

Eagle

New Member
Re: Northeast weather (let\'s pray together)...

[ QUOTE ]
No freakin' doubt -- I spent the week in TEB - the weather was horrid - even for the northeast.

Jason


[/ QUOTE ]

You should have let me know. Plenty of good beer joints up that way.
 

Jason

Well-Known Member
Re: Northeast weather (let\'s pray together)...

It was actually a pretty busy week - got in Monday ngiht and left Thursday afternoon - was at Flight Safety for International Procedures initial - we have a couple of western Europe trips coming up.

Jason
 

Acadia

Well-Known Member
Re: Northeast weather (let\'s pray together)...

KBHB 081815Z AUTO 00000KT 7SM OVC002 19/18 A2994 RMK AO1

That is about as good as its been for a full seven days over here. Sure beats the 1/4SM OVC001 we have had for much of the time.
 

Baronman

Well-Known Member
Re: Northeast weather (let\'s pray together)...

I don't feel so bad anymore after seeing what's up in Baaa Harbaaa Maine
 

jergar999

Yoke Pumper!
Re: Northeast weather (let\'s pray together)...

I'm trying to feel bad for you guys, but I haven't logged an approach, or any IMC for that matter for 4 months now, with the exception of a checkride which was all simulated, and I'm craving some real weather.
 

E_Dawg

Moderator
Re: Northeast weather (let\'s pray together)...

Clouds? What are those?


KLAX 081750Z 26010KT 10SM CLR 23/17 A2996 RMK AO2 SLP145 T02330167
10244 20178 53013=

KLGB 081856Z 19006KT 10SM CLR 28/17 A2994 RMK AO2 SLP137
T02830172=

KPSP 081853Z VRB03KT 10SM CLR 36/18 A2989 RMK AO2 SLP116
T03610183=

KSNA 081853Z 22006KT 10SM CLR 28/16 A2994 RMK AO2 SLP137
T02780161=
 

rausda27

Well-Known Member
Re: Northeast weather (let\'s pray together)...

I thought I had it bad..but its been liek this for the past 4 days...

KHWV 081929Z AUTO 19010KT 6SM BR OVC010 25/23 A2990
 

Acadia

Well-Known Member
Re: Northeast weather (let\'s pray together)...

Baaa Harbaaa is foggy once again!

KBHB 081935Z AUTO 10003KT 3/4SM OVC001 20/19 A2993 RMK AO1

Doh! The 7SM did not last long. I guess we might get some clearning by next Wednesday.
 
Top